Latest Weather Observations for Cultana (Defence)

IDS60801

Issued at 4:51 pm CDT Saturday 10 December 2022 (issued every 10 minutes, with the page automatically refreshed every 10 minutes)

About weather observations | Map of weather stations | Latest weather observations for SA | Other Formats
Station Details ID: 018229 Name: CULTANA (DEFENCE) Lat: -32.68 Lon: 137.37 Height: 171.0 m
Data from the previous 72 hours. | See also: Recent months at Cultana (Defence)
Date/Time
CDT
Temp
°C
App
Temp
°C
Dew
Point
°C
Rel
Hum
%
Delta-T
°C
Wind Press
QNH
hPa
Press
MSL
hPa
Rain since
9am
mm
Dir  Spd
km/h
Gust
km/h
Spd
kts
Gust
kts
10/04:30pm 35.0 27.3 -2.6 9 17.9 NW 28 35 15 19 - - 0.0
10/04:00pm 35.4 27.6 -0.8 10 17.8 NNW 30 39 16 21 - - 0.0
10/03:30pm 37.0 28.6 -1.1 9 18.9 N 33 43 18 23 - - 0.0
10/03:00pm 34.0 25.5 -1.9 10 17.2 NNW 33 43 18 23 - - 0.0
10/02:48pm 33.9 25.4 -2.0 10 17.2 NNW 33 46 18 25 - - 0.0
10/02:30pm 33.5 24.0 -1.0 11 16.7 NW 39 48 21 26 - - 0.0
10/02:12pm 34.1 25.2 -1.8 10 17.2 NNW 35 54 19 29 - - 0.0
10/02:00pm 34.0 25.1 -1.9 10 17.2 NNW 35 46 19 25 - - 0.0
10/01:30pm 34.5 24.5 -1.5 10 17.4 N 41 59 22 32 - - 0.0
10/01:06pm 35.0 25.8 -1.1 10 17.6 N 37 56 20 30 - - 0.0
10/01:00pm 34.6 25.2 -0.1 11 17.2 N 39 54 21 29 - - 0.0
10/12:30pm 34.2 24.4 -0.4 11 17.0 N 41 63 22 34 - - 0.0
10/12:16pm 33.6 23.7 -0.9 11 16.8 N 41 63 22 34 - - 0.0
10/12:00pm 32.8 23.1 0.8 13 15.9 N 41 54 22 29 - - 0.0
10/11:30am 29.4 18.8 1.0 16 13.8 NNE 46 59 25 32 - - 0.0
10/11:00am 29.8 19.3 1.3 16 14.0 N 46 56 25 30 - - 0.0
10/10:30am 30.6 21.1 1.9 16 14.3 N 41 54 22 29 - - 0.0
10/10:00am 28.7 20.0 2.1 18 13.2 NNE 37 46 20 25 - - 0.0
10/09:30am 28.3 19.2 1.7 18 13.0 NNE 39 50 21 27 - - 0.0
10/09:00am 28.3 19.2 1.7 18 13.0 NNE 39 50 21 27 - - 0.0
10/08:30am 26.1 17.0 2.1 21 11.7 NNE 39 50 21 27 - - 0.0
10/08:00am 25.1 16.9 2.5 23 11.0 NNE 35 44 19 24 - - 0.0
10/07:30am 23.5 17.0 2.9 26 10.0 NNE 26 32 14 17 - - 0.0
10/07:00am 21.9 15.8 2.6 28 9.2 NNE 24 28 13 15 - - 0.0
10/06:30am 20.9 15.2 2.7 30 8.6 NNE 22 26 12 14 - - 0.0
10/06:00am 20.3 14.6 2.6 31 8.3 NNE 22 24 12 13 - - 0.0
10/05:30am 20.8 14.8 3.1 31 8.4 NNE 24 28 13 15 - - 0.0
10/05:00am 20.7 15.1 3.4 32 8.3 NNE 22 30 12 16 - - 0.0
10/04:30am 21.7 15.6 2.9 29 9.0 NNE 24 32 13 17 - - 0.0
10/04:00am 21.0 15.4 3.7 32 8.4 NNE 22 26 12 14 - - 0.0
10/03:30am 22.1 15.8 3.7 30 9.0 NE 26 32 14 17 - - 0.0
10/03:00am 21.9 15.6 4.0 31 8.8 NE 26 30 14 16 - - 0.0
10/02:30am 21.9 16.4 4.0 31 8.8 NE 22 24 12 13 - - 0.0
10/02:00am 22.2 17.3 5.2 33 8.5 NE 20 26 11 14 - - 0.0
10/01:30am 23.4 17.9 5.8 32 9.0 NE 24 32 13 17 - - 0.0
10/01:00am 21.9 17.6 7.0 38 7.7 ENE 19 20 10 11 - - 0.0
10/12:30am 23.5 19.1 7.2 35 8.5 ENE 20 24 11 13 - - 0.0
10/12:00am 23.8 19.3 7.0 34 8.8 ENE 20 24 11 13 - - 0.0
 
Date/Time
CDT
Temp
°C
App
Temp
°C
Dew
Point
°C
Rel
Hum
%
Delta-T
°C
Wind Press
QNH
hPa
Press
MSL
hPa
Rain since
9am
mm
Dir  Spd
km/h
Gust
km/h
Spd
kts
Gust
kts
09/11:30pm 23.6 19.6 6.8 34 8.8 E 17 19 9 10 - - 0.0
09/11:00pm 23.8 19.8 6.6 33 8.9 E 17 19 9 10 - - 0.0
09/10:30pm 24.0 19.6 6.7 33 9.0 ESE 19 20 10 11 - - 0.0
09/10:00pm 24.7 20.2 6.9 32 9.3 ESE 20 22 11 12 - - 0.0
09/09:30pm 25.3 20.7 6.5 30 9.8 ESE 20 24 11 13 - - 0.0
09/09:00pm 26.3 21.6 5.3 26 10.8 E 19 24 10 13 - - 0.0
09/08:30pm 27.6 22.0 5.2 24 11.6 ENE 24 32 13 17 - - 0.0
09/08:00pm 28.9 23.7 3.7 20 12.8 ENE 20 24 11 13 - - 0.0
09/07:30pm 29.6 26.1 3.6 19 13.3 NE 11 19 6 10 - - 0.0
09/07:00pm 30.5 26.9 2.7 17 14.1 NNE 11 17 6 9 - - 0.0
09/06:30pm 30.5 26.2 3.5 18 13.8 ENE 15 20 8 11 - - 0.0
09/06:00pm 30.8 28.2 3.0 17 14.2 NNE 6 13 3 7 - - 0.0
09/05:30pm 31.0 27.4 3.1 17 14.2 N 11 20 6 11 - - 0.0
09/05:00pm 31.0 27.2 3.9 18 14.0 NNE 13 24 7 13 - - 0.0
09/04:30pm 30.5 28.2 5.0 20 13.4 N 6 13 3 7 - - 0.0
09/04:00pm 31.1 27.8 4.8 19 13.8 N 11 19 6 10 - - 0.0
09/03:30pm 29.9 26.1 3.8 19 13.4 NE 13 22 7 12 - - 0.0
09/03:00pm 30.4 27.4 4.2 19 13.6 NNW 9 17 5 9 - - 0.0
09/02:30pm 30.0 26.0 3.1 18 13.7 NW 13 26 7 14 - - 0.0
09/02:00pm 28.4 24.2 1.8 18 13.1 NNE 13 26 7 14 - - 0.0
09/01:30pm 27.3 23.6 2.4 20 12.3 N 11 22 6 12 - - 0.0
09/01:00pm 26.9 22.6 3.4 22 11.8 NNE 15 24 8 13 - - 0.0
09/12:30pm 25.9 22.1 3.8 24 11.1 NE 13 20 7 11 - - 0.0
09/12:00pm 24.4 21.0 4.2 27 10.1 NNE 11 20 6 11 - - 0.0
09/11:30am 24.6 21.3 4.4 27 10.1 NE 11 20 6 11 - - 0.0
09/11:00am 23.4 19.3 4.4 29 9.5 NNE 15 22 8 12 - - 0.0
09/10:30am 23.1 18.7 4.6 30 9.2 ENE 17 24 9 13 - - 0.0
09/10:00am 21.6 18.1 5.5 35 8.1 E 13 22 7 12 - - 0.0
09/09:30am 21.0 17.3 6.5 39 7.4 E 15 24 8 13 - - 0.0
09/09:00am 19.1 16.6 8.4 50 5.6 SSE 11 19 6 10 - - 0.0
09/08:30am 18.2 14.3 8.7 54 5.0 S 19 22 10 12 - - 0.0
09/08:00am 17.7 14.0 9.3 58 4.4 SW 19 22 10 12 - - 0.0
09/07:30am 16.9 15.1 9.6 62 3.8 S 9 13 5 7 - - 0.0
09/07:00am 16.1 15.1 10.2 68 3.1 SSW 6 7 3 4 - - 0.0
09/06:30am 15.9 15.9 9.8 67 3.2 CALM 0 4 0 2 - - 0.0
09/06:00am 15.9 14.9 8.9 63 3.6 ENE 4 6 2 3 - - 0.0
09/05:30am 15.9 15.8 9.3 65 3.4 CALM 0 0 0 0 - - 0.0
09/05:00am 15.8 15.4 9.9 68 3.1 SSW 2 4 1 2 - - 0.0
09/04:30am 15.7 14.6 10.0 69 3.0 SW 6 9 3 5 - - 0.0
09/04:00am 15.8 11.7 10.1 69 3.0 NE 22 28 12 15 - - 0.0
09/03:30am 15.8 11.1 10.6 71 2.8 E 26 33 14 18 - - 0.0
09/03:00am 15.7 12.7 10.5 71 2.8 SSE 17 19 9 10 - - 0.0
09/02:30am 15.8 12.4 10.6 71 2.8 SSW 19 22 10 12 - - 0.0
09/02:00am 16.1 11.1 10.8 71 2.8 SW 28 33 15 18 - - 0.0
09/01:30am 16.0 12.5 11.0 72 2.7 S 20 26 11 14 - - 0.0
09/01:00am 16.0 12.6 10.7 71 2.8 S 19 26 10 14 - - 0.0
09/12:30am 16.2 12.6 10.5 69 3.0 S 20 26 11 14 - - 0.0
09/12:00am 16.3 12.8 10.2 67 3.2 SSE 19 24 10 13 - - 0.0
 
Date/Time
CDT
Temp
°C
App
Temp
°C
Dew
Point
°C
Rel
Hum
%
Delta-T
°C
Wind Press
QNH
hPa
Press
MSL
hPa
Rain since
9am
mm
Dir  Spd
km/h
Gust
km/h
Spd
kts
Gust
kts
08/11:30pm 16.7 12.2 9.9 64 3.6 SSE 24 32 13 17 - - 0.0
08/11:00pm 17.1 12.7 9.0 59 4.2 SSE 22 32 12 17 - - 0.0
08/10:30pm 17.3 12.7 8.2 55 4.7 S 22 30 12 16 - - 0.0
08/10:00pm 17.6 12.0 7.1 50 5.3 S 26 33 14 18 - - 0.0
08/09:30pm 18.2 11.9 5.8 44 6.1 S 28 35 15 19 - - 0.0
08/09:00pm 18.4 12.0 5.3 42 6.4 S 28 35 15 19 - - 0.0
08/08:30pm 18.9 12.5 5.0 40 6.8 S 28 37 15 20 - - 0.0
08/08:00pm 19.8 13.3 4.7 37 7.4 SSE 28 37 15 20 - - 0.0
08/07:30pm 20.8 15.4 4.4 34 8.0 SSE 22 28 12 15 - - 0.0
08/07:00pm 21.7 16.3 4.3 32 8.5 SSE 22 30 12 16 - - 0.0
08/06:30pm 22.5 17.1 4.5 31 8.9 SSE 22 32 12 17 - - 0.0
08/06:00pm 23.0 17.9 4.0 29 9.4 SSE 20 35 11 19 - - 0.0
08/05:30pm 23.2 18.6 3.7 28 9.6 SSE 17 30 9 16 - - 0.0
08/05:00pm 23.0 18.3 3.0 27 9.7 SSE 17 32 9 17 - - 0.0
08/04:30pm 22.6 17.2 2.7 27 9.5 SSE 20 32 11 17 - - 0.0
08/04:00pm 22.9 17.2 2.9 27 9.6 SSE 22 33 12 18 - - 0.0
08/03:30pm 22.1 16.5 3.3 29 9.1 SE 22 35 12 19 - - 0.0
08/03:00pm 21.8 16.0 2.5 28 9.2 SSE 22 37 12 20 - - 0.0
08/02:30pm 21.6 15.6 3.3 30 8.8 SE 24 35 13 19 - - 0.0
08/02:00pm 20.4 13.8 2.3 30 8.5 SE 26 43 14 23 - - 0.0
08/01:30pm 20.5 14.9 3.3 32 8.2 SE 22 30 12 16 - - 0.0
08/01:00pm 20.0 14.0 3.3 33 7.9 SSE 24 35 13 19 - - 0.0
08/12:30pm 19.7 13.2 2.6 32 8.0 SE 26 35 14 19 - - 0.0
08/12:00pm 19.1 13.5 3.7 36 7.3 SE 22 41 12 22 - - 0.0
08/11:30am 17.6 11.1 2.8 37 6.8 SE 26 43 14 23 - - 0.0
08/11:00am 17.2 10.5 3.8 41 6.3 SE 28 39 15 21 - - 0.0
08/10:30am 16.7 9.9 3.1 40 6.3 SSE 28 37 15 20 - - 0.0
08/10:00am 15.9 8.9 4.0 45 5.6 SE 30 43 16 23 - - 0.0
08/09:30am 15.8 9.2 4.2 46 5.4 SE 28 39 15 21 - - 0.0
08/09:00am 15.2 7.9 4.6 49 5.0 SE 32 43 17 23 - - 0.0
08/08:30am 14.5 7.6 4.8 52 4.6 SE 30 41 16 22 - - 0.0
08/08:00am 14.1 8.6 4.1 51 4.6 SE 22 33 12 18 - - 0.0
08/07:30am 13.3 8.0 5.2 58 3.8 SE 22 30 12 16 - - 0.0
08/07:00am 12.4 7.7 5.1 61 3.4 SE 19 26 10 14 - - 0.0
08/06:30am 11.1 6.1 4.6 64 3.0 SE 20 24 11 13 - - 0.0
08/06:00am 11.0 5.5 4.2 63 3.1 SE 22 28 12 15 - - 0.0
08/05:30am 11.3 6.3 4.5 63 3.1 SE 20 26 11 14 - - 0.0
08/05:00am 11.9 6.6 5.1 63 3.2 SE 22 32 12 17 - - 0.0
08/04:30am 12.4 6.0 5.1 61 3.4 SE 28 37 15 20 - - 0.0
08/04:00am 13.3 7.9 6.4 63 3.3 SSE 24 32 13 17 - - 0.0
08/03:30am 13.2 8.4 5.6 60 3.6 S 20 28 11 15 - - 0.0
08/03:00am 13.4 8.3 6.0 61 3.5 S 22 32 12 17 - - 0.0
08/02:30am 13.5 8.1 6.4 62 3.4 S 24 32 13 17 - - 0.0
08/02:00am 13.7 8.0 6.8 63 3.4 SSE 26 35 14 19 - - 0.0
08/01:30am 14.2 7.5 7.5 64 3.3 SSE 32 41 17 22 - - 0.0
08/01:00am 13.7 9.0 7.9 68 2.9 SSW 22 28 12 15 - - 0.0
08/12:30am 14.0 9.4 8.0 67 3.0 S 22 30 12 16 - - 0.0
08/12:00am 13.7 7.9 8.1 69 2.8 SSW 28 35 15 19 - - 0.0
 
Date/Time
CDT
Temp
°C
App
Temp
°C
Dew
Point
°C
Rel
Hum
%
Delta-T
°C
Wind Press
QNH
hPa
Press
MSL
hPa
Rain since
9am
mm
Dir  Spd
km/h
Gust
km/h
Spd
kts
Gust
kts
07/11:30pm 13.8 8.1 8.2 69 2.8 SSW 28 37 15 20 - - 0.0
07/11:00pm 14.0 7.9 8.2 68 2.9 SSW 30 39 16 21 - - 0.0
07/10:30pm 14.4 7.6 7.9 65 3.3 SSW 33 43 18 23 - - 0.0
07/10:00pm 14.9 8.2 8.2 64 3.4 SSW 33 41 18 22 - - 0.0
07/09:30pm 15.4 7.9 7.9 61 3.8 S 37 50 20 27 - - 0.0
07/09:00pm 15.8 9.0 7.6 58 4.1 S 33 43 18 23 - - 0.0
07/08:30pm 16.3 8.1 8.0 58 4.2 S 41 52 22 28 - - 0.0
07/08:00pm 16.9 8.5 8.8 59 4.2 S 43 57 23 31 - - 0.0
07/07:32pm 17.7 9.3 9.1 57 4.5 S 43 63 23 34 - - 0.0
07/07:30pm 17.8 9.5 9.2 57 4.5 S 43 57 23 31 - - 0.0
07/07:00pm 19.1 11.1 9.0 52 5.3 S 41 54 22 29 - - 0.0
07/06:30pm 20.5 11.8 7.8 44 6.6 S 43 56 23 30 - - 0.0
07/06:17pm 20.8 12.8 7.4 42 6.9 S 39 57 21 31 - - 0.0
07/06:00pm 21.1 13.0 7.0 40 7.3 S 39 54 21 29 - - 0.0
07/05:42pm 20.6 12.2 7.2 42 6.9 S 41 61 22 33 - - 0.0
07/05:30pm 20.2 11.9 6.2 40 7.1 S 39 54 21 29 - - 0.0
07/05:13pm 21.2 13.0 6.7 39 7.4 SSE 39 59 21 32 - - 0.0
07/05:00pm 21.2 12.6 6.3 38 7.6 S 41 54 22 29 - - 0.0

Other formats

Comma delimited format used in spreadsheet applications
http://www.bom.gov.au/fwo/IDS60801/IDS60801.95683.axf

JavaScript Object Notation format (JSON) in row-major order
http://www.bom.gov.au/fwo/IDS60801/IDS60801.95683.json

Data quality

Most of these data are generated automatically and are frequently updated. Quality checks on data are not normally performed. It is possible for incorrect values to appear. Refer to information at About Latest Weather Observations and please check the disclaimer before using these data.